This is the latest recevied weather packets stored in our database for station/object KC9Q. If no packets are shown the sender has not sent any weather packets the latest 1 day(s).
| Time | Temp. | Humidity | Pressure | Rain* | Wind** | Luminosity | Snow |
|---|---|---|---|---|---|---|---|
| 1778058790 | 8.33° C | 95% | 1011.6 hPa | 0 mm | 3.58 m/s, 3° | 0 W/m² | - |
| 1778058488 | 8.33° C | 95% | 1011.3 hPa | 0 mm | 4.47 m/s, 3° | 0 W/m² | - |
| 1778058184 | 8.33° C | 95% | 1011 hPa | 0 mm | 4.92 m/s, 6° | 0 W/m² | - |
| 1778057889 | 8.33° C | 97% | 1010.7 hPa | 0 mm | 4.92 m/s, 0° | 0 W/m² | - |
| 1778057577 | 8.33° C | 96% | 1010.6 hPa | 0 mm | 6.26 m/s, 2° | 0 W/m² | - |
| 1778057274 | 8.33° C | 97% | 1010.6 hPa | 1.27 mm | 6.26 m/s, 1° | 0 W/m² | - |
| 1778056970 | 8.33° C | 97% | 1010.8 hPa | 3.56 mm | 4.92 m/s, 12° | 0 W/m² | - |
| 1778056667 | 8.33° C | 97% | 1010.9 hPa | 6.6 mm | 4.47 m/s, 354° | 0 W/m² | - |
| 1778056365 | 8.33° C | 96% | 1011 hPa | 5.33 mm | 4.47 m/s, 10° | 0 W/m² | - |
| 1778056062 | 8.33° C | 96% | 1011.3 hPa | 0.51 mm | 2.68 m/s, 341° | 0 W/m² | - |
| 1778055757 | 8.33° C | 96% | 1010.4 hPa | 0 mm | 5.36 m/s, 0° | 0 W/m² | - |
| 1778055456 | 8.89° C | 96% | 1010 hPa | 0.51 mm | 5.81 m/s, 359° | 0 W/m² | - |
| 1778055153 | 8.89° C | 96% | 1010 hPa | 0.51 mm | 4.02 m/s, 9° | 0 W/m² | - |
| 1778054851 | 8.89° C | 95% | 1009.9 hPa | 0 mm | 4.47 m/s, 3° | 0 W/m² | - |
| 1778054547 | 8.89° C | 95% | 1009.9 hPa | 0 mm | 4.92 m/s, 12° | 0 W/m² | - |
| 1778054245 | 8.89° C | 95% | 1009.8 hPa | 0 mm | 5.81 m/s, 11° | 0 W/m² | - |
| 1778053942 | 8.89° C | 95% | 1009.8 hPa | 0 mm | 4.92 m/s, 0° | 0 W/m² | - |
| 1778053639 | 8.89° C | 94% | 1009.5 hPa | 0 mm | 6.26 m/s, 8° | 0 W/m² | - |
| 1778053336 | 9.44° C | 94% | 1009.9 hPa | 0 mm | 4.92 m/s, 3° | 0 W/m² | - |
| 1778053034 | 9.44° C | 96% | 1010 hPa | 0 mm | 4.47 m/s, 347° | 0 W/m² | - |
| 1778052731 | 9.44° C | 95% | 1009.8 hPa | 0 mm | 4.92 m/s, 1° | 0 W/m² | - |
| 1778052428 | 9.44° C | 96% | 1009.8 hPa | 0 mm | 4.02 m/s, 2° | 0 W/m² | - |
| 1778052126 | 9.44° C | 95% | 1009.4 hPa | 0 mm | 6.26 m/s, 359° | 0 W/m² | - |
| 1778051823 | 9.44° C | 95% | 1009.7 hPa | 0 mm | 5.81 m/s, 10° | 0 W/m² | - |
| 1778051521 | 10° C | 96% | 1010.3 hPa | 0 mm | 4.02 m/s, 353° | 0 W/m² | - |
* Rain latest hour (hover to see other rain measurements)
** Current wind speed in m/s (hover to see current wind gust speed)